Time;durP1;ratioP1;P1;durP2;ratioP2;P2;SDS_P1;SDS_P2;PMS_P1;PMS_P2;Temp;Humidity;BMP_temperature;BMP_pressure;BME280_temperature;BME280_humidity;BME280_pressure;Samples;Min_cycle;Max_cycle;Signal;HPM_P1;HPM_P2
2022/12/28 00:01:21;;;;;;;5.82;5.30;;;;;;;7.77;100.00;62802.69;5146699;27;20543;-78
2022/12/28 00:03:49;;;;;;;8.43;5.10;;;;;;;7.80;100.00;62800.22;5146713;27;20243;-77
2022/12/28 00:06:18;;;;;;;5.50;4.95;;;;;;;7.78;100.00;62800.69;5147089;27;20572;-79
2022/12/28 00:08:45;;;;;;;5.18;4.63;;;;;;;7.76;100.00;62801.16;5147908;27;20198;-77
2022/12/28 00:11:15;;;;;;;4.88;4.47;;;;;;;7.78;100.00;62801.19;5148226;27;20216;-78
2022/12/28 00:13:42;;;;;;;5.40;4.90;;;;;;;7.81;100.00;62799.22;5144873;27;20229;-78
2022/12/28 00:16:10;;;;;;;7.63;5.68;;;;;;;7.84;100.00;62806.88;5145828;27;20230;-77
2022/12/28 00:18:39;;;;;;;5.70;5.13;;;;;;;7.78;100.00;62803.22;5145730;27;20378;-79
2022/12/28 00:21:06;;;;;;;7.25;4.93;;;;;;;7.79;100.00;62801.72;5146332;27;20214;-78
2022/12/28 00:23:34;;;;;;;7.13;5.07;;;;;;;7.80;100.00;62803.25;5143660;27;20500;-77
2022/12/28 00:26:08;;;;;;;7.93;5.00;;;;;;;7.77;100.00;62797.09;5127647;28;20211;-78
2022/12/28 00:28:36;;;;;;;5.20;4.55;;;;;;;7.81;100.00;62804.28;5126286;28;20195;-78
2022/12/28 00:31:04;;;;;;;4.95;4.45;;;;;;;7.77;100.00;62797.09;5138659;28;20214;-78
2022/12/28 00:33:31;;;;;;;4.88;4.43;;;;;;;7.83;100.00;62806.38;5145140;28;20241;-78
2022/12/28 00:36:00;;;;;;;5.22;4.72;;;;;;;7.83;100.00;62808.38;5145742;28;20214;-78
2022/12/28 00:38:27;;;;;;;4.55;4.25;;;;;;;7.84;100.00;62804.84;5149247;28;20249;-77
2022/12/28 00:40:54;;;;;;;5.10;4.65;;;;;;;7.83;100.00;62808.91;5146048;28;20210;-76
2022/12/28 00:43:21;;;;;;;5.50;5.00;;;;;;;7.87;100.00;62807.94;5146522;28;20337;-77
2022/12/28 00:45:50;;;;;;;6.15;5.55;;;;;;;7.83;100.00;62803.31;5144950;28;20276;-78
2022/12/28 00:48:17;;;;;;;5.63;4.82;;;;;;;7.82;100.00;62804.81;5144401;27;20205;-78
2022/12/28 00:50:45;;;;;;;4.90;4.50;;;;;;;7.80;100.00;62802.75;5145537;28;20531;-78
2022/12/28 00:53:13;;;;;;;6.22;5.40;;;;;;;7.84;100.00;62804.84;5146484;28;20226;-77
2022/12/28 00:55:40;;;;;;;5.38;4.93;;;;;;;7.82;100.00;62802.25;5147275;28;20215;-78
2022/12/28 00:58:07;;;;;;;6.15;5.55;;;;;;;7.78;100.00;62795.63;5146815;28;20202;-78
2022/12/28 01:00:35;;;;;;;6.15;5.65;;;;;;;7.76;100.00;62794.06;5145172;28;20247;-77
2022/12/28 01:03:04;;;;;;;4.05;3.75;;;;;;;7.73;100.00;62790.97;5145108;27;20511;-77
2022/12/28 01:05:31;;;;;;;5.55;4.75;;;;;;;7.68;100.00;62788.34;5146406;28;20247;-77
2022/12/28 01:07:58;;;;;;;5.45;4.97;;;;;;;7.65;100.00;62787.78;5145637;28;20254;-78
2022/12/28 01:10:25;;;;;;;5.38;4.88;;;;;;;7.65;100.00;62787.25;5145976;28;20195;-79
2022/12/28 01:12:53;;;;;;;6.30;5.70;;;;;;;7.64;100.00;62784.22;5146380;28;20227;-81
2022/12/28 01:15:20;;;;;;;7.50;5.70;;;;;;;7.54;100.00;62773.38;5145368;28;20383;-78
2022/12/28 01:17:47;;;;;;;6.38;5.35;;;;;;;7.53;100.00;62772.84;5144038;28;20534;-79
2022/12/28 01:20:15;;;;;;;6.65;5.82;;;;;;;7.40;100.00;62764.50;5147573;28;20224;-77
2022/12/28 01:22:42;;;;;;;6.22;5.65;;;;;;;7.31;100.00;62749.63;5145410;28;20213;-77
2022/12/28 01:25:11;;;;;;;6.07;5.53;;;;;;;7.31;100.00;62749.63;5145247;28;20383;-78
2022/12/28 01:27:39;;;;;;;6.80;5.88;;;;;;;7.34;100.00;62755.78;5144976;28;20221;-77
2022/12/28 01:30:06;;;;;;;6.85;5.85;;;;;;;7.27;100.00;62748.03;5146527;28;20205;-76
2022/12/28 01:32:33;;;;;;;7.00;5.70;;;;;;;7.23;100.00;62744.41;5143380;28;20234;-78
2022/12/28 01:35:00;;;;;;;6.32;5.72;;;;;;;7.12;100.00;62733.09;5146769;28;20197;-77
2022/12/28 01:37:28;;;;;;;7.53;6.30;;;;;;;7.15;100.00;62738.19;5148247;27;20218;-77
2022/12/28 01:39:55;;;;;;;8.35;6.25;;;;;;;7.09;100.00;62729.47;5149093;27;20199;-77
2022/12/28 01:42:22;;;;;;;6.10;5.50;;;;;;;7.11;100.00;62732.03;5147920;27;20271;-77
2022/12/28 01:44:50;;;;;;;7.28;5.90;;;;;;;7.15;100.00;62736.16;5150360;27;20190;-77
2022/12/28 01:47:24;;;;;;;7.35;5.72;;;;;;;7.13;100.00;62731.56;5148204;27;20218;-77
2022/12/28 01:49:58;;;;;;;6.68;6.07;;;;;;;7.10;100.00;62731.00;5149499;27;20222;-76
2022/12/28 01:52:33;;;;;;;7.18;6.47;;;;;;;7.06;100.00;62726.38;5148262;27;20229;-77
2022/12/28 01:55:06;;;;;;;6.75;6.03;;;;;;;6.98;100.00;62714.09;5147279;27;20463;-78
2022/12/28 01:57:39;;;;;;;7.10;6.38;;;;;;;6.94;100.00;62712.50;5144264;27;21482;-77
2022/12/28 02:00:09;;;;;;;7.60;6.25;;;;;;;7.01;100.00;62726.78;5131443;27;20195;-78
2022/12/28 02:02:37;;;;;;;7.43;6.47;;;;;;;7.03;100.00;62718.72;5147357;27;20573;-77
2022/12/28 02:05:05;;;;;;;7.25;6.60;;;;;;;7.04;100.00;62725.34;5148344;27;20545;-76
2022/12/28 02:07:40;;;;;;;7.05;6.35;;;;;;;7.11;100.00;62731.53;5148961;27;20231;-78
2022/12/28 02:10:10;;;;;;;10.57;7.18;;;;;;;7.06;100.00;62726.88;5148144;27;20285;-78
2022/12/28 02:12:37;;;;;;;8.07;6.78;;;;;;;7.09;100.00;62726.94;5148041;27;20271;-77
2022/12/28 02:15:05;;;;;;;6.30;5.70;;;;;;;7.06;100.00;62728.91;5146111;27;20481;-77
2022/12/28 02:17:33;;;;;;;7.10;6.40;;;;;;;6.99;100.00;62715.13;5147861;27;20215;-78
2022/12/28 02:20:00;;;;;;;6.50;5.80;;;;;;;6.95;100.00;62715.53;5147537;27;20216;-77
2022/12/28 02:22:54;;;;;;;7.43;5.95;;;;;;;6.98;99.93;62719.16;5146420;27;20275;-77
2022/12/28 02:25:53;;;;;;;7.03;6.00;;;;;;;7.01;98.94;62724.25;5144990;27;20195;-77
2022/12/28 02:28:50;;;;;;;6.75;5.60;;;;;;;6.97;97.46;62713.06;5148776;27;20210;-78
2022/12/28 02:31:22;;;;;;;8.98;6.18;;;;;;;6.90;97.27;62705.81;5150336;27;20222;-78
2022/12/28 02:33:54;;;;;;;8.80;6.60;;;;;;;6.89;97.26;62704.28;5148655;27;20530;-77
2022/12/28 02:36:25;;;;;;;7.13;6.30;;;;;;;6.94;96.59;62715.03;5147169;27;20223;-78
2022/12/28 02:39:00;;;;;;;6.55;5.90;;;;;;;6.98;96.27;62716.09;5146516;27;20505;-77
2022/12/28 02:41:27;;;;;;;7.93;6.63;;;;;;;6.95;95.99;62715.53;5147679;27;20270;-77
2022/12/28 02:43:55;;;;;;;9.10;6.80;;;;;;;6.75;95.25;62695.41;5147565;27;20511;-78
2022/12/28 02:52:14;;;;;;;8.55;6.80;;;;;;;6.80;95.19;62700.06;5147557;27;20255;-77
2022/12/28 02:58:18;;;;;;;6.47;5.63;;;;;;;6.77;94.81;62699.50;5110316;27;20233;-78
2022/12/28 03:00:58;;;;;;;7.20;6.50;;;;;;;6.81;94.20;62703.63;5147805;27;20387;-76
2022/12/28 03:03:34;;;;;;;6.78;6.18;;;;;;;6.79;94.36;62693.97;5148796;27;20196;-76
2022/12/28 03:09:15;;;;;;;10.27;6.22;;;;;;;6.79;94.69;62693.97;5071632;27;20295;-77
2022/12/28 03:11:51;;;;;;;6.45;5.80;;;;;;;6.88;93.58;62710.84;5146325;27;20545;-77
2022/12/28 03:14:23;;;;;;;7.80;6.70;;;;;;;6.88;93.72;62701.25;5147283;27;20229;-78
2022/12/28 03:31:06;;;;;;;8.15;6.82;;;;;;;6.86;94.58;62706.25;5083698;28;20220;-77
2022/12/28 03:33:37;;;;;;;6.32;5.78;;;;;;;6.86;94.86;62704.25;5108568;27;20250;-77
2022/12/28 03:36:10;;;;;;;10.73;7.20;;;;;;;6.84;94.95;62704.72;5147488;27;20286;-78
2022/12/28 03:38:47;;;;;;;9.50;7.30;;;;;;;6.76;96.01;62693.41;5146892;27;20309;-77
2022/12/28 03:41:19;;;;;;;8.27;6.72;;;;;;;6.79;95.98;62702.09;5147014;27;20214;-78
2022/12/28 03:43:49;;;;;;;11.30;6.85;;;;;;;6.77;95.97;62691.91;5146389;27;20480;-77
2022/12/28 03:46:21;;;;;;;7.55;6.05;;;;;;;6.69;95.57;62689.25;5146104;27;20218;-76
2022/12/28 03:48:51;;;;;;;7.40;6.50;;;;;;;6.71;95.94;62690.78;5147950;27;20195;-77
2022/12/28 03:51:22;;;;;;;6.28;5.40;;;;;;;6.59;96.42;62678.91;5144597;27;20283;-78
2022/12/28 03:53:49;;;;;;;8.45;6.97;;;;;;;6.55;97.20;62674.28;5146428;27;20244;-78
2022/12/28 03:56:17;;;;;;;9.95;7.55;;;;;;;6.52;97.52;62671.69;5147384;27;20275;-77
2022/12/28 03:58:44;;;;;;;12.90;7.53;;;;;;;6.48;98.28;62665.06;5146254;27;20232;-77
2022/12/28 04:01:12;;;;;;;13.60;7.65;;;;;;;6.50;98.28;62669.66;5146165;27;20233;-78
2022/12/28 04:03:39;;;;;;;10.73;7.97;;;;;;;6.57;98.22;62678.88;5147944;27;20199;-78
2022/12/28 04:06:08;;;;;;;8.82;7.22;;;;;;;6.48;98.72;62667.59;5144363;27;20227;-77
2022/12/28 04:08:35;;;;;;;8.95;8.00;;;;;;;6.45;98.60;62661.97;5145966;27;20259;-79
2022/12/28 04:11:03;;;;;;;8.82;6.93;;;;;;;6.44;99.08;62658.41;5146168;27;20214;-78
2022/12/28 04:13:30;;;;;;;8.45;7.03;;;;;;;6.38;99.69;62652.22;5144867;27;20247;-77
2022/12/28 04:15:59;;;;;;;7.90;6.75;;;;;;;6.39;99.25;62655.78;5145915;27;20215;-77
2022/12/28 04:18:26;;;;;;;8.10;7.13;;;;;;;6.38;99.53;62657.28;5146084;27;20506;-77
2022/12/28 04:20:53;;;;;;;8.85;7.13;;;;;;;6.50;98.54;62666.59;5146346;27;20247;-77
2022/12/28 04:23:22;;;;;;;8.88;6.40;;;;;;;6.39;98.78;62653.25;5148060;27;20289;-78
2022/12/28 04:26:00;;;;;;;8.02;6.53;;;;;;;6.49;99.02;62668.09;5145265;27;20256;-77
2022/12/28 04:28:28;;;;;;;10.52;8.02;;;;;;;6.52;99.04;62668.66;5145839;27;20411;-76
2022/12/28 04:30:56;;;;;;;9.82;6.50;;;;;;;6.53;98.65;62672.75;5145242;27;20210;-75
2022/12/28 04:33:23;;;;;;;8.75;6.70;;;;;;;6.47;99.08;62660.97;5145309;28;20579;-77
2022/12/28 04:35:50;;;;;;;8.15;7.25;;;;;;;6.37;99.36;62655.72;5145884;28;20238;-76
2022/12/28 04:38:18;;;;;;;8.80;6.50;;;;;;;6.29;100.00;62642.41;5145821;28;20198;-76
2022/12/28 04:40:46;;;;;;;7.28;6.20;;;;;;;6.25;100.00;62645.88;5145980;28;20218;-77
2022/12/28 04:43:13;;;;;;;5.88;5.35;;;;;;;6.24;99.91;62640.31;5145229;28;20251;-77
2022/12/28 04:45:40;;;;;;;7.32;5.75;;;;;;;6.22;99.90;62637.72;5145583;28;20221;-77
2022/12/28 04:48:07;;;;;;;9.75;6.47;;;;;;;6.12;100.00;62630.47;5148979;28;20216;-78
2022/12/28 04:50:36;;;;;;;7.68;6.32;;;;;;;6.18;100.00;62636.66;5145007;28;20514;-78
2022/12/28 04:53:02;;;;;;;8.50;6.05;;;;;;;6.14;100.00;62632.00;5146868;28;20195;-78
2022/12/28 04:55:29;;;;;;;7.25;5.10;;;;;;;6.17;99.88;62633.09;5147276;28;20390;-76
2022/12/28 04:57:59;;;;;;;6.43;5.43;;;;;;;6.23;99.57;62641.78;5148671;28;20191;-78
2022/12/28 05:00:30;;;;;;;6.30;5.70;;;;;;;6.26;98.67;62642.38;5151621;28;20212;-78
2022/12/28 05:02:59;;;;;;;6.07;5.25;;;;;;;6.29;98.80;62650.00;5150142;28;20202;-78
2022/12/28 05:05:26;;;;;;;7.00;5.10;;;;;;;6.42;98.42;62661.38;5146505;28;20193;-77
2022/12/28 05:08:01;;;;;;;5.68;5.10;;;;;;;6.44;98.11;62663.44;5148504;28;20194;-77
2022/12/28 05:10:28;;;;;;;6.10;5.50;;;;;;;6.44;98.03;62663.44;5127417;28;20191;-78
2022/12/28 05:13:11;;;;;;;5.78;5.18;;;;;;;6.55;97.00;62672.28;5132117;28;20191;-78
2022/12/28 05:15:38;;;;;;;6.57;5.18;;;;;;;6.62;96.54;62678.97;5135663;28;20282;-77
2022/12/28 05:18:05;;;;;;;5.15;4.57;;;;;;;6.67;96.46;62689.19;5131618;28;20191;-78
2022/12/28 05:20:38;;;;;;;5.35;4.85;;;;;;;6.55;96.00;62672.28;5137776;28;20195;-76
2022/12/28 05:23:16;;;;;;;5.50;4.57;;;;;;;6.76;96.26;62690.88;5132467;28;20191;-77
2022/12/28 05:25:43;;;;;;;5.70;4.60;;;;;;;6.82;96.33;62702.13;5134040;27;20211;-76
2022/12/28 05:28:13;;;;;;;5.18;4.72;;;;;;;6.60;95.98;62679.97;5155515;27;20549;-78
2022/12/28 05:30:39;;;;;;;7.10;5.10;;;;;;;6.47;95.32;62666.53;5155075;27;20245;-77
2022/12/28 05:33:12;;;;;;;6.35;4.55;;;;;;;6.54;95.97;62673.25;5155175;27;20199;-78
2022/12/28 05:35:39;;;;;;;4.55;4.10;;;;;;;6.58;95.77;62679.91;5155004;27;20223;-78
2022/12/28 05:38:05;;;;;;;5.60;4.50;;;;;;;6.68;95.71;62690.72;5154224;27;20232;-78
2022/12/28 05:40:33;;;;;;;5.43;4.60;;;;;;;6.78;95.15;62695.47;5153751;27;20198;-77
2022/12/28 05:43:00;;;;;;;7.43;4.95;;;;;;;6.84;94.61;62696.59;5153466;27;20202;-77
2022/12/28 05:45:28;;;;;;;5.72;5.13;;;;;;;6.82;93.86;62702.66;5153628;27;20194;-77
2022/12/28 05:47:56;;;;;;;7.03;5.25;;;;;;;6.78;93.10;62701.03;5156443;27;20179;-78
2022/12/28 05:50:29;;;;;;;6.80;5.70;;;;;;;6.82;92.47;62700.13;5159004;27;20191;-78
2022/12/28 05:52:58;;;;;;;9.43;5.85;;;;;;;6.84;92.92;62702.19;5154008;27;20191;-77
2022/12/28 05:55:26;;;;;;;8.55;6.35;;;;;;;6.77;92.01;62694.44;5154540;27;20233;-79
2022/12/28 05:57:54;;;;;;;8.32;5.55;;;;;;;6.82;91.56;62699.59;5151542;27;20196;-78
2022/12/28 06:00:23;;;;;;;8.80;5.78;;;;;;;6.82;91.53;62702.66;5155561;27;20243;-77
2022/12/28 06:02:53;;;;;;;8.98;5.82;;;;;;;6.75;91.52;62695.41;5158002;27;20192;-78
2022/12/28 06:05:20;;;;;;;5.95;5.30;;;;;;;6.51;89.44;62673.19;5149776;27;20224;-77
2022/12/28 06:07:46;;;;;;;5.47;4.97;;;;;;;6.30;89.69;62648.50;5153216;27;20243;-77
2022/12/28 06:10:25;;;;;;;6.03;5.20;;;;;;;6.21;90.04;62639.75;5151419;27;20202;-78
2022/12/28 06:12:54;;;;;;;8.18;5.57;;;;;;;6.26;90.03;62641.84;5146384;27;20195;-77
2022/12/28 06:15:21;;;;;;;7.28;5.40;;;;;;;6.35;88.69;62648.59;5131467;28;20321;-78
2022/12/28 06:17:54;;;;;;;6.43;4.85;;;;;;;6.39;87.31;62660.81;5130462;28;20249;-78
2022/12/28 06:20:21;;;;;;;7.38;5.90;;;;;;;6.41;87.63;62660.38;5131978;28;20191;-77
2022/12/28 06:22:47;;;;;;;5.20;4.53;;;;;;;6.55;86.98;62672.28;5126916;27;20283;-77
2022/12/28 06:25:14;;;;;;;6.80;4.93;;;;;;;6.60;85.07;62677.44;5127615;28;20191;-75
2022/12/28 06:27:41;;;;;;;6.20;4.50;;;;;;;6.68;84.01;62685.16;5138775;27;20198;-77
2022/12/28 06:30:10;;;;;;;4.70;4.15;;;;;;;6.69;83.43;62688.72;5147150;27;20210;-77
2022/12/28 06:32:37;;;;;;;6.95;4.78;;;;;;;6.67;83.44;62684.13;5149655;27;20535;-76
2022/12/28 06:35:06;;;;;;;5.18;4.68;;;;;;;6.63;84.16;62680.50;5147835;27;20453;-78
2022/12/28 06:37:32;;;;;;;5.32;4.82;;;;;;;6.71;83.76;62691.28;5147359;27;20214;-76
2022/12/28 06:40:00;;;;;;;5.63;5.07;;;;;;;6.75;83.33;62692.38;5147538;27;20195;-77
2022/12/28 06:42:27;;;;;;;11.23;7.72;;;;;;;6.71;82.98;62688.25;5147041;27;20286;-77
2022/12/28 06:44:54;;;;;;;10.40;7.05;;;;;;;6.77;82.13;62699.50;5146419;27;20191;-77
2022/12/28 06:47:21;;;;;;;11.32;7.22;;;;;;;6.78;82.51;62695.97;5147454;27;20221;-76
2022/12/28 06:49:48;;;;;;;12.50;7.10;;;;;;;6.89;82.68;62707.34;5147674;27;20194;-77
2022/12/28 06:52:16;;;;;;;11.70;7.65;;;;;;;6.91;83.03;62717.00;5129112;27;20218;-77
2022/12/28 06:54:43;;;;;;;10.10;7.25;;;;;;;6.88;84.13;62705.78;5126818;28;20231;-77
2022/12/28 06:57:10;;;;;;;9.13;6.85;;;;;;;6.86;85.56;62706.78;5128261;28;20215;-76
2022/12/28 06:59:37;;;;;;;6.97;6.28;;;;;;;6.92;86.05;62709.91;5127193;28;20195;-77
2022/12/28 07:02:04;;;;;;;7.20;5.75;;;;;;;6.88;86.93;62708.31;5139848;27;20225;-77
2022/12/28 07:04:31;;;;;;;8.77;5.72;;;;;;;6.92;87.31;62715.50;5129862;27;20505;-80
2022/12/28 07:06:58;;;;;;;8.98;7.13;;;;;;;6.81;88.12;62698.56;5126160;28;20215;-76
2022/12/28 07:09:26;;;;;;;11.07;7.03;;;;;;;6.53;91.26;62665.16;5127561;27;20225;-76
2022/12/28 07:11:53;;;;;;;10.48;7.68;;;;;;;6.57;92.33;62673.81;5148534;27;20230;-76
2022/12/28 07:14:20;;;;;;;10.10;7.13;;;;;;;6.81;91.05;62704.16;5147308;27;20284;-78
2022/12/28 07:16:48;;;;;;;6.65;5.97;;;;;;;6.89;90.93;62711.88;5146599;27;20214;-77
2022/12/28 07:19:16;;;;;;;7.15;6.45;;;;;;;7.07;90.08;62730.47;5145285;27;20203;-77
2022/12/28 07:21:43;;;;;;;7.15;6.28;;;;;;;7.21;89.91;62739.31;5129025;27;20245;-77
2022/12/28 07:24:10;;;;;;;7.53;6.20;;;;;;;7.29;89.14;62753.16;5146984;27;20252;-77
2022/12/28 07:26:39;;;;;;;10.55;7.55;;;;;;;7.50;88.45;62772.28;5149012;27;20273;-77
2022/12/28 07:29:07;;;;;;;9.45;6.68;;;;;;;7.54;86.17;62773.38;5140327;27;20204;-77
2022/12/28 07:31:36;;;;;;;11.10;6.30;;;;;;;7.59;85.76;62778.53;5126049;28;20215;-77
2022/12/28 07:34:03;;;;;;;10.50;7.25;;;;;;;7.71;84.80;62790.91;5125251;28;20252;-77
2022/12/28 07:36:32;;;;;;;11.20;7.40;;;;;;;7.87;83.88;62807.44;5141779;27;20226;-78
2022/12/28 07:39:00;;;;;;;13.30;7.82;;;;;;;7.98;83.69;62821.84;5145523;27;20273;-77
2022/12/28 07:41:29;;;;;;;15.57;8.82;;;;;;;7.99;83.33;62819.81;5148203;27;20234;-76
2022/12/28 07:43:58;;;;;;;9.95;7.13;;;;;;;8.08;82.11;62829.13;5146077;27;20206;-77
2022/12/28 07:46:28;;;;;;;7.10;6.40;;;;;;;8.13;80.21;62836.81;5146188;27;20215;-76
2022/12/28 07:48:55;;;;;;;11.32;7.32;;;;;;;8.32;79.71;62853.91;5145893;27;20368;-78
2022/12/28 07:51:25;;;;;;;14.02;7.22;;;;;;;8.62;77.14;62889.47;5146533;27;20215;-77
2022/12/28 07:53:54;;;;;;;12.55;6.40;;;;;;;8.71;75.01;62891.69;5145735;27;20202;-77
2022/12/28 07:56:23;;;;;;;9.45;6.78;;;;;;;8.86;74.63;62911.72;5147521;27;20233;-77
2022/12/28 07:58:50;;;;;;;11.85;7.40;;;;;;;8.95;73.38;62924.09;5146806;27;20528;-77
2022/12/28 08:01:22;;;;;;;8.25;7.10;;;;;;;8.96;73.04;62919.53;5134615;27;20222;-78
2022/12/28 08:03:53;;;;;;;11.23;7.20;;;;;;;9.01;72.67;62924.69;5125227;28;20192;-77
2022/12/28 08:06:21;;;;;;;13.15;7.15;;;;;;;8.90;72.54;62916.41;5125876;28;20331;-77
2022/12/28 08:08:51;;;;;;;10.63;6.45;;;;;;;8.78;73.98;62906.00;5129483;27;20196;-76
2022/12/28 08:11:20;;;;;;;8.18;6.80;;;;;;;8.72;74.69;62902.34;5129248;27;20573;-78
2022/12/28 08:13:48;;;;;;;8.82;7.05;;;;;;;8.70;74.86;62895.19;5145627;27;20191;-77
2022/12/28 08:16:19;;;;;;;9.55;6.15;;;;;;;8.56;75.72;62883.28;5147424;27;20242;-77
2022/12/28 08:18:46;;;;;;;7.07;6.00;;;;;;;8.45;75.74;62866.84;5145846;27;20187;-77
2022/12/28 08:21:16;;;;;;;7.30;5.95;;;;;;;7.86;79.04;62806.41;5147511;27;20370;-76
2022/12/28 08:23:43;;;;;;;6.55;5.90;;;;;;;7.43;83.55;62764.56;5146008;27;20425;-77
2022/12/28 08:26:12;;;;;;;6.97;6.28;;;;;;;7.58;83.29;62777.50;5146148;27;20270;-78
2022/12/28 08:28:40;;;;;;;7.78;6.53;;;;;;;7.63;82.24;62780.63;5145169;27;20202;-76
2022/12/28 08:31:11;;;;;;;7.10;6.15;;;;;;;7.33;84.29;62752.22;5146047;27;20214;-77
2022/12/28 08:33:39;;;;;;;9.82;6.85;;;;;;;6.87;87.36;62707.81;5146819;27;20372;-77
2022/12/28 08:36:08;;;;;;;12.73;6.90;;;;;;;6.74;89.34;62693.88;5145801;28;20234;-78
2022/12/28 08:38:35;;;;;;;7.78;6.90;;;;;;;7.10;87.26;62728.47;5125297;28;20394;-78
2022/12/28 08:41:04;;;;;;;7.95;6.70;;;;;;;7.20;86.67;62743.84;5125403;28;20230;-77
2022/12/28 08:43:35;;;;;;;7.15;6.03;;;;;;;7.43;85.57;62762.03;5126585;28;20217;-78
2022/12/28 08:46:08;;;;;;;9.88;7.35;;;;;;;7.37;86.35;62760.91;5147060;27;20301;-77
2022/12/28 08:48:38;;;;;;;7.53;5.88;;;;;;;7.60;84.73;62782.63;5159239;27;20250;-77
2022/12/28 08:51:09;;;;;;;8.32;6.75;;;;;;;7.38;84.71;62756.84;5151778;27;20248;-75
2022/12/28 08:54:02;;;;;;;9.43;6.80;;;;;;;6.77;88.04;62700.03;5153613;27;20190;-77
2022/12/28 08:56:37;;;;;;;8.82;6.35;;;;;;;6.97;88.85;62717.59;5160082;27;20278;-78
2022/12/28 08:59:05;;;;;;;11.25;7.05;;;;;;;7.27;85.94;62743.50;5157975;27;20232;-79
2022/12/28 09:01:34;;;;;;;10.73;7.82;;;;;;;7.26;84.75;62749.53;5152285;27;20218;-76
2022/12/28 09:04:02;;;;;;;9.25;7.47;;;;;;;7.00;86.04;62723.75;5154363;27;20207;-76
2022/12/28 09:06:33;;;;;;;10.43;7.30;;;;;;;6.90;87.60;62710.38;5152725;27;20445;-78
2022/12/28 09:09:01;;;;;;;9.85;6.90;;;;;;;6.95;88.22;62718.06;5152161;27;20199;-77
2022/12/28 09:11:28;;;;;;;12.40;8.40;;;;;;;6.78;89.67;62698.00;5153396;27;20218;-77
2022/12/28 09:13:55;;;;;;;12.55;7.88;;;;;;;7.09;88.72;62729.47;5153016;27;20220;-77
2022/12/28 09:16:26;;;;;;;8.55;7.30;;;;;;;7.15;85.64;62736.16;5148918;27;20222;-76
2022/12/28 09:18:54;;;;;;;8.55;7.28;;;;;;;6.75;87.58;62695.41;5150954;27;20510;-77
2022/12/28 09:21:23;;;;;;;9.60;7.45;;;;;;;6.96;87.87;62717.09;5151492;27;20214;-77
2022/12/28 09:23:51;;;;;;;11.45;7.95;;;;;;;7.29;85.70;62747.56;5149989;27;20203;-78
2022/12/28 09:26:20;;;;;;;13.68;9.95;;;;;;;7.38;84.49;62761.94;5151652;27;20218;-76
2022/12/28 09:28:47;;;;;;;13.50;9.73;;;;;;;7.45;83.39;62764.59;5150113;27;20240;-77
2022/12/28 09:31:15;;;;;;;10.73;7.60;;;;;;;7.59;82.18;62776.00;5150110;27;20218;-77
2022/12/28 09:34:01;;;;;;;12.85;8.55;;;;;;;7.52;80.32;62774.38;5148079;27;20198;-76
2022/12/28 09:36:29;;;;;;;12.00;8.55;;;;;;;7.20;82.42;62738.78;5149293;27;20242;-77
2022/12/28 09:38:59;;;;;;;11.88;7.68;;;;;;;7.06;84.85;62726.38;5148792;27;20198;-77
2022/12/28 09:41:30;;;;;;;11.80;7.97;;;;;;;7.31;83.91;62747.63;5149313;27;20406;-78
2022/12/28 09:44:08;;;;;;;15.63;8.60;;;;;;;7.26;79.41;62747.53;5149088;27;20236;-77
2022/12/28 09:46:38;;;;;;;10.63;8.00;;;;;;;6.98;82.58;62721.69;5147958;27;20210;-78
2022/12/28 09:49:12;;;;;;;12.95;8.20;;;;;;;6.89;83.88;62709.88;5149110;27;20250;-78
2022/12/28 09:51:47;;;;;;;12.82;7.85;;;;;;;6.90;85.08;62707.84;5149680;27;20203;-77
2022/12/28 09:54:15;;;;;;;13.15;7.75;;;;;;;6.91;83.39;62709.41;5147000;27;20201;-76
2022/12/28 09:56:46;;;;;;;9.80;6.72;;;;;;;7.26;81.56;62747.00;5149254;27;20226;-76
2022/12/28 09:59:18;;;;;;;8.00;6.90;;;;;;;7.14;82.40;62732.63;5147843;27;20206;-78
2022/12/28 10:01:54;;;;;;;10.48;7.70;;;;;;;7.32;80.12;62756.25;5148390;27;20219;-77
2022/12/28 10:04:21;;;;;;;12.00;7.65;;;;;;;7.33;81.25;62754.22;5150130;27;20210;-76
2022/12/28 10:06:48;;;;;;;9.82;7.47;;;;;;;7.51;79.92;62770.25;5148029;27;20215;-77
2022/12/28 10:09:26;;;;;;;10.02;7.45;;;;;;;7.24;80.31;62742.94;5149429;27;20274;-77
2022/12/28 10:11:53;;;;;;;10.48;7.45;;;;;;;7.47;80.49;62766.66;5127358;28;20321;-77
2022/12/28 10:14:26;;;;;;;8.95;7.55;;;;;;;7.34;81.33;62747.66;5128098;27;20225;-78
2022/12/28 10:16:53;;;;;;;9.55;6.93;;;;;;;7.29;81.03;62752.63;5148402;27;20436;-75
2022/12/28 10:19:23;;;;;;;10.32;8.25;;;;;;;7.41;81.41;62763.00;5149830;27;20216;-77
2022/12/28 10:21:57;;;;;;;9.95;7.70;;;;;;;7.76;80.08;62801.16;5149156;27;20215;-77
2022/12/28 10:24:26;;;;;;;10.68;7.78;;;;;;;8.18;76.60;62836.91;5148657;27;20202;-77
2022/12/28 10:26:55;;;;;;;12.52;7.93;;;;;;;8.06;74.87;62827.03;5147505;27;20283;-76
2022/12/28 10:29:24;;;;;;;10.90;7.75;;;;;;;8.15;74.86;62838.88;5148031;27;20232;-77
2022/12/28 10:32:00;;;;;;;13.10;8.82;;;;;;;7.76;76.53;62798.63;5149798;27;20478;-76
2022/12/28 10:34:28;;;;;;;11.60;8.55;;;;;;;8.07;75.31;62828.09;5148782;27;20216;-78
2022/12/28 10:36:57;;;;;;;10.60;7.63;;;;;;;8.19;75.01;62846.06;5147700;27;20535;-77
2022/12/28 10:39:29;;;;;;;11.20;7.78;;;;;;;8.68;72.77;62890.59;5148525;27;20191;-77
2022/12/28 10:42:00;;;;;;;13.40;9.07;;;;;;;8.74;70.50;62896.78;5146960;27;20222;-77
2022/12/28 10:44:30;;;;;;;11.57;8.52;;;;;;;8.19;73.42;62845.56;5148327;27;20199;-77
2022/12/28 10:47:00;;;;;;;10.50;7.93;;;;;;;8.57;72.72;62879.22;5147676;27;20223;-77
2022/12/28 10:49:30;;;;;;;9.70;8.27;;;;;;;9.00;69.44;62926.72;5126735;28;20199;-77
2022/12/28 10:52:07;;;;;;;10.82;7.80;;;;;;;9.31;67.79;62958.25;5126504;28;20219;-77
2022/12/28 10:54:37;;;;;;;12.20;8.07;;;;;;;9.29;67.65;62953.63;5126326;28;20191;-76
2022/12/28 10:57:05;;;;;;;9.02;7.90;;;;;;;9.37;67.30;62963.94;5128098;28;20222;-76
2022/12/28 10:59:32;;;;;;;14.32;8.38;;;;;;;9.59;66.73;62986.69;5140610;27;20199;-77
2022/12/28 11:02:23;;;;;;;13.68;9.18;;;;;;;9.68;67.22;62996.00;5148891;27;20221;-78
2022/12/28 11:04:58;;;;;;;13.02;9.20;;;;;;;9.72;64.42;62998.09;5146702;27;20199;-77
2022/12/28 11:07:33;;;;;;;12.68;8.85;;;;;;;9.13;66.31;62942.19;5133982;27;20387;-77
2022/12/28 11:10:29;;;;;;;15.77;9.30;;;;;;;9.39;65.97;62963.97;5126524;28;20190;-78
2022/12/28 11:12:57;;;;;;;11.35;8.77;;;;;;;9.37;65.63;62963.94;5128538;28;20496;-77
2022/12/28 11:15:27;;;;;;;13.80;9.50;;;;;;;9.53;65.61;62978.44;5135845;27;20218;-77
2022/12/28 11:17:56;;;;;;;12.18;8.48;;;;;;;9.26;65.94;62953.09;5149067;27;20499;-77
2022/12/28 11:20:29;;;;;;;12.13;9.10;;;;;;;9.42;65.76;62966.56;5146477;27;20218;-78
2022/12/28 11:22:56;;;;;;;12.15;9.25;;;;;;;9.62;64.43;62985.22;5146437;27;20280;-77
2022/12/28 11:25:33;;;;;;;14.40;8.15;;;;;;;9.56;63.87;62983.59;5146594;27;20232;-78
2022/12/28 11:28:01;;;;;;;9.77;8.02;;;;;;;9.59;63.98;62984.66;5147537;27;20513;-76
2022/12/28 11:30:30;;;;;;;14.80;9.10;;;;;;;9.61;64.61;62989.25;5146686;27;20210;-76
2022/12/28 11:32:59;;;;;;;14.77;9.23;;;;;;;9.37;65.18;62964.44;5146311;27;20190;-77
2022/12/28 11:35:29;;;;;;;18.05;9.07;;;;;;;9.00;67.75;62923.66;5145042;27;20366;-77
2022/12/28 11:37:59;;;;;;;12.13;9.13;;;;;;;8.58;70.21;62880.25;5148240;27;20210;-76
2022/12/28 11:40:51;;;;;;;13.15;8.77;;;;;;;8.15;73.38;62843.94;5146295;27;20198;-77
2022/12/28 11:44:01;;;;;;;14.45;8.57;;;;;;;7.95;75.10;62818.22;5145717;27;20198;-77
2022/12/28 11:46:42;;;;;;;14.75;9.55;;;;;;;7.80;76.46;62802.75;5146616;27;20207;-76
2022/12/28 11:49:34;;;;;;;12.15;8.98;;;;;;;7.78;77.30;62800.69;5146639;27;20206;-76
2022/12/28 11:52:43;;;;;;;11.65;9.07;;;;;;;7.79;77.33;62801.72;5146111;27;20227;-77
2022/12/28 11:55:47;;;;;;;11.77;8.68;;;;;;;7.53;78.57;62774.88;5146331;27;20190;-77
2022/12/28 11:58:47;;;;;;;12.00;8.40;;;;;;;7.82;78.30;62807.34;5146071;27;20403;-77
2022/12/28 12:01:58;;;;;;;12.60;9.63;;;;;;;8.14;76.89;62835.81;5101686;27;20394;-77
2022/12/28 12:04:41;;;;;;;10.75;8.13;;;;;;;8.49;73.94;62873.50;5084477;28;20196;-76
2022/12/28 12:07:27;;;;;;;13.32;8.85;;;;;;;8.72;71.78;62895.25;5139005;27;20218;-78
2022/12/28 12:10:21;;;;;;;16.60;10.18;;;;;;;8.81;70.40;62906.56;5149299;27;20205;-77
2022/12/28 12:12:50;;;;;;;15.48;9.25;;;;;;;8.87;71.20;62910.25;5145813;27;20195;-77
2022/12/28 12:15:22;;;;;;;13.82;9.55;;;;;;;9.00;71.33;62924.19;5147331;27;20187;-76
2022/12/28 12:17:54;;;;;;;13.55;8.85;;;;;;;9.13;71.66;62940.16;5146553;27;20203;-76
2022/12/28 12:20:41;;;;;;;14.75;9.43;;;;;;;9.27;72.31;62951.56;5146437;27;20191;-77